MCF1TR LOWW-LHBP
Flight info
| Callsign | MCF1TR |
|---|---|
| Flight time | 0h 43m |
| Altitude | 23000 |
| Route | ARSIN DCT VAJDI |
| Aircraft | A320/M-SDE3FGHIRWY/LB1 |
Departure
| Time | 2026-04-23 20:47 |
|---|---|
| Airport | Vienna International Airport (LOWW) |
Arrival
| Time | 2026-04-23 21:31 |
|---|---|
| Airport | Budapest Liszt Ferenc International Airport (LHBP) |
| Time | Latitude | Longitude | Altitude | Speed | Heading |
|---|---|---|---|---|---|
| 2026-04-23 20:18 | 48.12017 | 16.55611 | 624 ft | 0 kts | 116° |
| 2026-04-23 20:37 | 48.12026 | 16.55584 | 622 ft | 4 kts | 120° |
| 2026-04-23 20:37 | 48.12042 | 16.55552 | 623 ft | 4 kts | 143° |
| 2026-04-23 20:38 | 48.12061 | 16.55542 | 620 ft | 2 kts | 204° |
| 2026-04-23 20:38 | 48.12062 | 16.55543 | 620 ft | 0 kts | 205° |
| 2026-04-23 20:41 | 48.12061 | 16.55542 | 609 ft | 2 kts | 205° |
| 2026-04-23 20:41 | 48.12016 | 16.55510 | 612 ft | 8 kts | 205° |
| 2026-04-23 20:41 | 48.11967 | 16.55476 | 612 ft | 7 kts | 206° |
| 2026-04-23 20:42 | 48.11902 | 16.55439 | 609 ft | 13 kts | 188° |
| 2026-04-23 20:42 | 48.11818 | 16.55435 | 613 ft | 11 kts | 153° |
| 2026-04-23 20:42 | 48.11766 | 16.55563 | 617 ft | 16 kts | 117° |
| 2026-04-23 20:42 | 48.11719 | 16.55711 | 612 ft | 18 kts | 115° |
| 2026-04-23 20:43 | 48.11652 | 16.55914 | 617 ft | 22 kts | 116° |
| 2026-04-23 20:43 | 48.11589 | 16.56109 | 617 ft | 20 kts | 115° |
| 2026-04-23 20:43 | 48.11549 | 16.56232 | 614 ft | 19 kts | 116° |
| 2026-04-23 20:43 | 48.11494 | 16.56399 | 618 ft | 17 kts | 116° |
| 2026-04-23 20:44 | 48.11444 | 16.56553 | 614 ft | 16 kts | 116° |
| 2026-04-23 20:44 | 48.11399 | 16.56693 | 620 ft | 14 kts | 116° |
| 2026-04-23 20:44 | 48.11339 | 16.56780 | 614 ft | 12 kts | 184° |
| 2026-04-23 20:44 | 48.11308 | 16.56745 | 620 ft | 0 kts | 237° |
| 2026-04-23 20:45 | 48.11298 | 16.56707 | 612 ft | 10 kts | 256° |
| 2026-04-23 20:45 | 48.11293 | 16.56606 | 615 ft | 10 kts | 266° |
| 2026-04-23 20:45 | 48.11289 | 16.56488 | 609 ft | 14 kts | 267° |
| 2026-04-23 20:46 | 48.11307 | 16.56326 | 614 ft | 6 kts | 295° |
| 2026-04-23 20:46 | 48.11309 | 16.56322 | 613 ft | 0 kts | 295° |
| 2026-04-23 20:46 | 48.11310 | 16.56317 | 611 ft | 4 kts | 295° |
| 2026-04-23 20:46 | 48.11397 | 16.56051 | 618 ft | 64 kts | 296° |
| 2026-04-23 20:47 | 48.11690 | 16.55155 | 615 ft | 125 kts | 296° |
| 2026-04-23 20:47 | 48.12118 | 16.53810 | 923 ft | 146 kts | 297° |
| 2026-04-23 20:47 | 48.12402 | 16.52379 | 1630 ft | 145 kts | 279° |
| 2026-04-23 20:47 | 48.11981 | 16.50924 | 2238 ft | 171 kts | 233° |
| 2026-04-23 20:48 | 48.10972 | 16.49794 | 2580 ft | 194 kts | 221° |
| 2026-04-23 20:48 | 48.09749 | 16.48651 | 2872 ft | 218 kts | 220° |
| 2026-04-23 20:48 | 48.08362 | 16.47450 | 3164 ft | 248 kts | 207° |
| 2026-04-23 20:48 | 48.06540 | 16.47212 | 3564 ft | 282 kts | 172° |
| 2026-04-23 20:49 | 48.04538 | 16.47762 | 4202 ft | 298 kts | 172° |
| 2026-04-23 20:49 | 48.02473 | 16.48230 | 5155 ft | 302 kts | 174° |
| 2026-04-23 20:49 | 48.00376 | 16.48635 | 6129 ft | 305 kts | 175° |
| 2026-04-23 20:49 | 47.98259 | 16.48831 | 7066 ft | 305 kts | 186° |
| 2026-04-23 20:50 | 47.96130 | 16.48865 | 7948 ft | 311 kts | 169° |
| 2026-04-23 20:50 | 47.94104 | 16.50021 | 8816 ft | 314 kts | 153° |
| 2026-04-23 20:50 | 47.92134 | 16.51450 | 9765 ft | 316 kts | 152° |
| 2026-04-23 20:50 | 47.90138 | 16.52914 | 10415 ft | 329 kts | 152° |
| 2026-04-23 20:51 | 47.88005 | 16.54452 | 10714 ft | 353 kts | 153° |
| 2026-04-23 20:51 | 47.85717 | 16.56100 | 10924 ft | 375 kts | 149° |
| 2026-04-23 20:51 | 47.83630 | 16.58537 | 11054 ft | 391 kts | 128° |
| 2026-04-23 20:51 | 47.82198 | 16.62016 | 11309 ft | 399 kts | 108° |
| 2026-04-23 20:52 | 47.81195 | 16.65893 | 11903 ft | 404 kts | 107° |
| 2026-04-23 20:52 | 47.80184 | 16.69817 | 12571 ft | 407 kts | 107° |
| 2026-04-23 20:52 | 47.79163 | 16.73767 | 13229 ft | 410 kts | 107° |
| 2026-04-23 20:52 | 47.78130 | 16.77744 | 13873 ft | 413 kts | 108° |
| 2026-04-23 20:53 | 47.77089 | 16.81741 | 14451 ft | 416 kts | 107° |
| 2026-04-23 20:53 | 47.76263 | 16.85851 | 15001 ft | 416 kts | 101° |
| 2026-04-23 20:53 | 47.75546 | 16.90025 | 15565 ft | 418 kts | 101° |
| 2026-04-23 20:53 | 47.74842 | 16.94222 | 16120 ft | 420 kts | 100° |
| 2026-04-23 20:54 | 47.74141 | 16.98455 | 16665 ft | 423 kts | 100° |
| 2026-04-23 20:54 | 47.73448 | 17.02639 | 17193 ft | 425 kts | 100° |
| 2026-04-23 20:54 | 47.72723 | 17.06984 | 17734 ft | 428 kts | 101° |
| 2026-04-23 20:54 | 47.71996 | 17.11296 | 18196 ft | 432 kts | 101° |
| 2026-04-23 20:55 | 47.71256 | 17.15642 | 18646 ft | 435 kts | 101° |
| 2026-04-23 20:55 | 47.70509 | 17.20017 | 19086 ft | 438 kts | 101° |
| 2026-04-23 20:55 | 47.69757 | 17.24397 | 19521 ft | 439 kts | 101° |
| 2026-04-23 20:55 | 47.69000 | 17.28800 | 19958 ft | 441 kts | 101° |
| 2026-04-23 20:56 | 47.68238 | 17.33212 | 20387 ft | 443 kts | 101° |
| 2026-04-23 20:56 | 47.67471 | 17.37644 | 20803 ft | 444 kts | 101° |
| 2026-04-23 20:56 | 47.66701 | 17.42090 | 21206 ft | 446 kts | 101° |
| 2026-04-23 20:56 | 47.65928 | 17.46553 | 21631 ft | 447 kts | 100° |
| 2026-04-23 20:57 | 47.65151 | 17.51038 | 21983 ft | 450 kts | 100° |
| 2026-04-23 20:57 | 47.64370 | 17.55542 | 22353 ft | 452 kts | 100° |
| 2026-04-23 20:57 | 47.63583 | 17.60063 | 22624 ft | 453 kts | 100° |
| 2026-04-23 20:57 | 47.62790 | 17.64585 | 22893 ft | 454 kts | 100° |
| 2026-04-23 20:58 | 47.62000 | 17.69070 | 23057 ft | 456 kts | 100° |
| 2026-04-23 20:58 | 47.61194 | 17.73647 | 23084 ft | 461 kts | 100° |
| 2026-04-23 20:58 | 47.60383 | 17.78249 | 23085 ft | 462 kts | 100° |
| 2026-04-23 20:58 | 47.59571 | 17.82855 | 23088 ft | 462 kts | 100° |
| 2026-04-23 20:59 | 47.58755 | 17.87465 | 23094 ft | 463 kts | 101° |
| 2026-04-23 20:59 | 47.57939 | 17.92049 | 23079 ft | 463 kts | 101° |
| 2026-04-23 20:59 | 47.57108 | 17.96691 | 23081 ft | 464 kts | 101° |
| 2026-04-23 20:59 | 47.56281 | 18.01300 | 23078 ft | 464 kts | 101° |
| 2026-04-23 21:00 | 47.55451 | 18.05917 | 23080 ft | 464 kts | 101° |
| 2026-04-23 21:00 | 47.54625 | 18.10527 | 23082 ft | 464 kts | 101° |
| 2026-04-23 21:00 | 47.53800 | 18.15138 | 23082 ft | 464 kts | 101° |
| 2026-04-23 21:00 | 47.52971 | 18.19744 | 23074 ft | 463 kts | 101° |
| 2026-04-23 21:01 | 47.52155 | 18.24241 | 22555 ft | 451 kts | 101° |
| 2026-04-23 21:01 | 47.51333 | 18.28744 | 20842 ft | 448 kts | 101° |
| 2026-04-23 21:01 | 47.50529 | 18.33144 | 19905 ft | 434 kts | 101° |
| 2026-04-23 21:01 | 47.49763 | 18.37312 | 19385 ft | 425 kts | 101° |
| 2026-04-23 21:02 | 47.48998 | 18.41512 | 18598 ft | 422 kts | 101° |
| 2026-04-23 21:02 | 47.48248 | 18.45637 | 17782 ft | 420 kts | 102° |
| 2026-04-23 21:02 | 47.47488 | 18.49808 | 17027 ft | 420 kts | 102° |
| 2026-04-23 21:02 | 47.46724 | 18.53969 | 16274 ft | 418 kts | 102° |
| 2026-04-23 21:03 | 47.45961 | 18.58103 | 15569 ft | 416 kts | 102° |
| 2026-04-23 21:03 | 47.45219 | 18.62116 | 14900 ft | 414 kts | 102° |
| 2026-04-23 21:03 | 47.44465 | 18.66203 | 14218 ft | 412 kts | 102° |
| 2026-04-23 21:03 | 47.43709 | 18.70278 | 13518 ft | 409 kts | 102° |
| 2026-04-23 21:04 | 47.42959 | 18.74307 | 12863 ft | 405 kts | 102° |
| 2026-04-23 21:04 | 47.42217 | 18.78292 | 12220 ft | 400 kts | 102° |
| 2026-04-23 21:04 | 47.41481 | 18.82222 | 11580 ft | 396 kts | 102° |
| 2026-04-23 21:04 | 47.40751 | 18.86088 | 11280 ft | 382 kts | 102° |
| 2026-04-23 21:05 | 47.40053 | 18.89778 | 11154 ft | 365 kts | 102° |
| 2026-04-23 21:05 | 47.39386 | 18.93304 | 11026 ft | 349 kts | 102° |
| 2026-04-23 21:05 | 47.38748 | 18.96688 | 10903 ft | 335 kts | 102° |
| 2026-04-23 21:05 | 47.38135 | 18.99939 | 10777 ft | 323 kts | 102° |
| 2026-04-23 21:06 | 47.37543 | 19.03078 | 10667 ft | 312 kts | 102° |
| 2026-04-23 21:06 | 47.36970 | 19.06114 | 10479 ft | 304 kts | 101° |
| 2026-04-23 21:06 | 47.36411 | 19.09087 | 10351 ft | 299 kts | 101° |
| 2026-04-23 21:06 | 47.35855 | 19.12038 | 10251 ft | 299 kts | 101° |
| 2026-04-23 21:07 | 47.35297 | 19.14981 | 10123 ft | 298 kts | 101° |
| 2026-04-23 21:07 | 47.34739 | 19.17914 | 9995 ft | 297 kts | 102° |
| 2026-04-23 21:07 | 47.34023 | 19.20729 | 9857 ft | 289 kts | 114° |
| 2026-04-23 21:07 | 47.32930 | 19.23169 | 9407 ft | 284 kts | 127° |
| 2026-04-23 21:08 | 47.31605 | 19.25316 | 8826 ft | 282 kts | 129° |
| 2026-04-23 21:08 | 47.30289 | 19.27428 | 8261 ft | 279 kts | 129° |
| 2026-04-23 21:08 | 47.28984 | 19.29522 | 7703 ft | 276 kts | 129° |
| 2026-04-23 21:08 | 47.27699 | 19.31589 | 7148 ft | 273 kts | 129° |
| 2026-04-23 21:09 | 47.26423 | 19.33638 | 6598 ft | 269 kts | 129° |
| 2026-04-23 21:09 | 47.25170 | 19.35668 | 6021 ft | 265 kts | 126° |
| 2026-04-23 21:09 | 47.24311 | 19.37995 | 5450 ft | 255 kts | 102° |
| 2026-04-23 21:09 | 47.24145 | 19.40508 | 4974 ft | 243 kts | 81° |
| 2026-04-23 21:10 | 47.24609 | 19.42839 | 4536 ft | 232 kts | 59° |
| 2026-04-23 21:10 | 47.25526 | 19.44722 | 4070 ft | 223 kts | 41° |
| 2026-04-23 21:10 | 47.26716 | 19.46013 | 3950 ft | 208 kts | 26° |
| 2026-04-23 21:10 | 47.28063 | 19.46737 | 3868 ft | 206 kts | 11° |
| 2026-04-23 21:11 | 47.29436 | 19.46891 | 3759 ft | 192 kts | 356° |
| 2026-04-23 21:11 | 47.30707 | 19.46539 | 3603 ft | 178 kts | 344° |
| 2026-04-23 21:11 | 47.31777 | 19.45819 | 3424 ft | 162 kts | 332° |
| 2026-04-23 21:11 | 47.32636 | 19.44869 | 3241 ft | 146 kts | 322° |
| 2026-04-23 21:12 | 47.33321 | 19.43816 | 3042 ft | 138 kts | 318° |
| 2026-04-23 21:12 | 47.33958 | 19.42795 | 2859 ft | 134 kts | 319° |
| 2026-04-23 21:12 | 47.34619 | 19.41739 | 2674 ft | 141 kts | 319° |
| 2026-04-23 21:12 | 47.35261 | 19.40705 | 2486 ft | 134 kts | 319° |
| 2026-04-23 21:13 | 47.35885 | 19.39703 | 2310 ft | 132 kts | 319° |
| 2026-04-23 21:13 | 47.36501 | 19.38714 | 2128 ft | 130 kts | 319° |
| 2026-04-23 21:13 | 47.37113 | 19.37730 | 1952 ft | 130 kts | 319° |
| 2026-04-23 21:13 | 47.37716 | 19.36761 | 1778 ft | 130 kts | 319° |
| 2026-04-23 21:14 | 47.38327 | 19.35779 | 1605 ft | 131 kts | 319° |
| 2026-04-23 21:14 | 47.38939 | 19.34793 | 1422 ft | 129 kts | 318° |
| 2026-04-23 21:14 | 47.39552 | 19.33808 | 1256 ft | 131 kts | 317° |
| 2026-04-23 21:14 | 47.40166 | 19.32817 | 1071 ft | 131 kts | 314° |
| 2026-04-23 21:15 | 47.40777 | 19.31835 | 899 ft | 133 kts | 313° |
| 2026-04-23 21:15 | 47.41403 | 19.30830 | 743 ft | 133 kts | 314° |
| 2026-04-23 21:15 | 47.42020 | 19.29829 | 583 ft | 130 kts | 313° |
| 2026-04-23 21:15 | 47.42630 | 19.28850 | 449 ft | 124 kts | 313° |
| 2026-04-23 21:16 | 47.43198 | 19.27945 | 586 ft | 131 kts | 314° |
| 2026-04-23 21:16 | 47.43857 | 19.26888 | 1193 ft | 147 kts | 314° |
| 2026-04-23 21:16 | 47.44544 | 19.25739 | 2068 ft | 150 kts | 315° |
| 2026-04-23 21:16 | 47.45215 | 19.24477 | 2569 ft | 161 kts | 318° |
| 2026-04-23 21:17 | 47.46217 | 19.23684 | 2727 ft | 177 kts | 349° |
| 2026-04-23 21:17 | 47.47505 | 19.23653 | 2943 ft | 195 kts | 12° |
| 2026-04-23 21:17 | 47.48775 | 19.24443 | 3006 ft | 199 kts | 30° |
| 2026-04-23 21:17 | 47.49861 | 19.25719 | 3006 ft | 202 kts | 44° |
| 2026-04-23 21:18 | 47.50498 | 19.27588 | 3006 ft | 212 kts | 75° |
| 2026-04-23 21:18 | 47.50437 | 19.29803 | 3011 ft | 219 kts | 91° |
| 2026-04-23 21:18 | 47.50056 | 19.32007 | 3006 ft | 227 kts | 113° |
| 2026-04-23 21:18 | 47.49051 | 19.33837 | 3012 ft | 234 kts | 129° |
| 2026-04-23 21:19 | 47.47935 | 19.35599 | 3009 ft | 234 kts | 129° |
| 2026-04-23 21:19 | 47.46830 | 19.37366 | 3008 ft | 234 kts | 126° |
| 2026-04-23 21:19 | 47.45794 | 19.39211 | 3010 ft | 233 kts | 123° |
| 2026-04-23 21:19 | 47.44788 | 19.41097 | 3009 ft | 233 kts | 123° |
| 2026-04-23 21:20 | 47.43797 | 19.42977 | 3010 ft | 232 kts | 123° |
| 2026-04-23 21:20 | 47.42807 | 19.44850 | 3009 ft | 231 kts | 123° |
| 2026-04-23 21:20 | 47.41811 | 19.46723 | 3008 ft | 231 kts | 123° |
| 2026-04-23 21:20 | 47.40819 | 19.48581 | 3008 ft | 231 kts | 123° |
| 2026-04-23 21:21 | 47.39833 | 19.50423 | 3008 ft | 226 kts | 124° |
| 2026-04-23 21:21 | 47.38855 | 19.52249 | 3007 ft | 228 kts | 123° |
| 2026-04-23 21:21 | 47.37872 | 19.54085 | 3007 ft | 228 kts | 124° |
| 2026-04-23 21:21 | 47.36821 | 19.55847 | 3007 ft | 228 kts | 125° |
| 2026-04-23 21:22 | 47.35841 | 19.57691 | 3009 ft | 227 kts | 122° |
| 2026-04-23 21:22 | 47.34894 | 19.59552 | 3007 ft | 228 kts | 122° |
| 2026-04-23 21:22 | 47.33943 | 19.61427 | 3005 ft | 228 kts | 122° |
| 2026-04-23 21:22 | 47.32998 | 19.63302 | 3004 ft | 228 kts | 122° |
| 2026-04-23 21:23 | 47.31880 | 19.64962 | 2999 ft | 233 kts | 148° |
| 2026-04-23 21:23 | 47.30866 | 19.65512 | 3001 ft | 237 kts | 171° |
| 2026-04-23 21:23 | 47.29252 | 19.65247 | 3002 ft | 236 kts | 206° |
| 2026-04-23 21:23 | 47.28000 | 19.63782 | 3003 ft | 229 kts | 239° |
| 2026-04-23 21:24 | 47.27403 | 19.61668 | 3002 ft | 221 kts | 268° |
| 2026-04-23 21:24 | 47.27504 | 19.59492 | 3004 ft | 212 kts | 292° |
| 2026-04-23 21:24 | 47.27939 | 19.57418 | 3008 ft | 213 kts | 292° |
| 2026-04-23 21:24 | 47.28368 | 19.55371 | 2990 ft | 202 kts | 292° |
| 2026-04-23 21:25 | 47.28771 | 19.53428 | 3005 ft | 195 kts | 293° |
| 2026-04-23 21:25 | 47.29166 | 19.51530 | 3006 ft | 192 kts | 294° |
| 2026-04-23 21:25 | 47.29705 | 19.49891 | 3014 ft | 163 kts | 312° |
| 2026-04-23 21:25 | 47.30369 | 19.48657 | 2997 ft | 147 kts | 317° |
| 2026-04-23 21:26 | 47.31026 | 19.47546 | 3005 ft | 141 kts | 318° |
| 2026-04-23 21:26 | 47.31676 | 19.46480 | 3006 ft | 139 kts | 319° |
| 2026-04-23 21:26 | 47.32324 | 19.45431 | 3007 ft | 138 kts | 319° |
| 2026-04-23 21:26 | 47.32971 | 19.44388 | 2987 ft | 138 kts | 319° |
| 2026-04-23 21:27 | 47.33623 | 19.43341 | 2891 ft | 138 kts | 319° |
| 2026-04-23 21:27 | 47.34259 | 19.42317 | 2751 ft | 134 kts | 320° |
| 2026-04-23 21:27 | 47.34885 | 19.41311 | 2580 ft | 132 kts | 320° |
| 2026-04-23 21:27 | 47.35504 | 19.40318 | 2411 ft | 131 kts | 320° |
| 2026-04-23 21:28 | 47.36117 | 19.39332 | 2259 ft | 130 kts | 320° |
| 2026-04-23 21:28 | 47.36727 | 19.38352 | 2070 ft | 129 kts | 319° |
| 2026-04-23 21:28 | 47.37335 | 19.37375 | 1886 ft | 129 kts | 319° |
| 2026-04-23 21:28 | 47.37933 | 19.36413 | 1715 ft | 129 kts | 319° |
| 2026-04-23 21:29 | 47.38543 | 19.35432 | 1531 ft | 129 kts | 319° |
| 2026-04-23 21:29 | 47.39148 | 19.34458 | 1358 ft | 129 kts | 319° |
| 2026-04-23 21:29 | 47.39760 | 19.33471 | 1181 ft | 130 kts | 316° |
| 2026-04-23 21:29 | 47.40370 | 19.32491 | 1006 ft | 130 kts | 314° |
| 2026-04-23 21:30 | 47.40985 | 19.31495 | 835 ft | 132 kts | 314° |
| 2026-04-23 21:30 | 47.41609 | 19.30492 | 672 ft | 133 kts | 313° |
| 2026-04-23 21:30 | 47.42229 | 19.29489 | 525 ft | 131 kts | 313° |
| 2026-04-23 21:30 | 47.42827 | 19.28529 | 452 ft | 114 kts | 312° |
| 2026-04-23 21:31 | 47.43235 | 19.27873 | 462 ft | 51 kts | 313° |
| 2026-04-23 21:31 | 47.43358 | 19.27512 | 465 ft | 37 kts | 282° |
| 2026-04-23 21:31 | 47.43394 | 19.27254 | 460 ft | 18 kts | 282° |
| 2026-04-23 21:31 | 47.43422 | 19.27067 | 459 ft | 18 kts | 282° |
| 2026-04-23 21:32 | 47.43489 | 19.26900 | 458 ft | 20 kts | 311° |
| 2026-04-23 21:32 | 47.43586 | 19.26745 | 457 ft | 22 kts | 313° |
| 2026-04-23 21:32 | 47.43692 | 19.26575 | 458 ft | 23 kts | 313° |
| 2026-04-23 21:32 | 47.43751 | 19.26430 | 458 ft | 16 kts | 255° |
| 2026-04-23 21:33 | 47.43664 | 19.26357 | 456 ft | 15 kts | 155° |
| 2026-04-23 21:33 | 47.43596 | 19.26462 | 458 ft | 14 kts | 131° |
| 2026-04-23 21:33 | 47.43540 | 19.26513 | 458 ft | 7 kts | 201° |
| 2026-04-23 21:33 | 47.43509 | 19.26476 | 458 ft | 1 kts | 222° |
| 2026-04-23 21:34 | 47.43508 | 19.26475 | 458 ft | 0 kts | 222° |